sensor_id;sensor_type;location;lat;lon;timestamp;pressure;altitude;pressure_sealevel;temperature;humidity
60489;BME280;46331;49.252;8.904;2023-08-06T00:00:11;98915.91;;;15.42;100.00
60489;BME280;46331;49.252;8.904;2023-08-06T00:00:52;98922.06;;;15.42;100.00
60489;BME280;46331;49.252;8.904;2023-08-06T00:01:33;98919.38;;;15.42;100.00
60489;BME280;46331;49.252;8.904;2023-08-06T00:02:13;98914.03;;;15.42;100.00
60489;BME280;46331;49.252;8.904;2023-08-06T00:02:54;98922.56;;;15.44;100.00
60489;BME280;46331;49.252;8.904;2023-08-06T00:03:34;98914.81;;;15.43;100.00
60489;BME280;46331;49.252;8.904;2023-08-06T00:04:15;98919.88;;;15.44;100.00
60489;BME280;46331;49.252;8.904;2023-08-06T00:04:55;98920.97;;;15.43;100.00
60489;BME280;46331;49.252;8.904;2023-08-06T00:05:36;98920.16;;;15.43;100.00
60489;BME280;46331;49.252;8.904;2023-08-06T00:06:16;98913.75;;;15.44;100.00
60489;BME280;46331;49.252;8.904;2023-08-06T00:06:57;98922.84;;;15.43;100.00
60489;BME280;46331;49.252;8.904;2023-08-06T00:07:37;98917.50;;;15.43;100.00
60489;BME280;46331;49.252;8.904;2023-08-06T00:08:18;98918.06;;;15.40;100.00
60489;BME280;46331;49.252;8.904;2023-08-06T00:08:58;98913.03;;;15.38;100.00
60489;BME280;46331;49.252;8.904;2023-08-06T00:09:39;98915.69;;;15.38;100.00
60489;BME280;46331;49.252;8.904;2023-08-06T00:10:19;98913.31;;;15.36;100.00
60489;BME280;46331;49.252;8.904;2023-08-06T00:11:00;98911.44;;;15.37;100.00
60489;BME280;46331;49.252;8.904;2023-08-06T00:11:40;98917.59;;;15.37;100.00
60489;BME280;46331;49.252;8.904;2023-08-06T00:12:21;98917.59;;;15.37;100.00
60489;BME280;46331;49.252;8.904;2023-08-06T00:13:02;98919.22;;;15.33;100.00
60489;BME280;46331;49.252;8.904;2023-08-06T00:13:42;98910.44;;;15.33;100.00
60489;BME280;46331;49.252;8.904;2023-08-06T00:14:23;98911.50;;;15.32;100.00
60489;BME280;46331;49.252;8.904;2023-08-06T00:15:03;98905.97;;;15.28;100.00
60489;BME280;46331;49.252;8.904;2023-08-06T00:15:44;98907.03;;;15.27;100.00
60489;BME280;46331;49.252;8.904;2023-08-06T00:16:25;98904.66;;;15.26;100.00
60489;BME280;46331;49.252;8.904;2023-08-06T00:17:05;98906.00;;;15.23;100.00
60489;BME280;46331;49.252;8.904;2023-08-06T00:17:45;98911.88;;;15.25;100.00
60489;BME280;46331;49.252;8.904;2023-08-06T00:18:26;98907.59;;;15.24;100.00
60489;BME280;46331;49.252;8.904;2023-08-06T00:19:06;98909.19;;;15.25;100.00
60489;BME280;46331;49.252;8.904;2023-08-06T00:19:47;98909.41;;;15.29;100.00
60489;BME280;46331;49.252;8.904;2023-08-06T00:20:27;98908.63;;;15.28;100.00
60489;BME280;46331;49.252;8.904;2023-08-06T00:21:08;98906.25;;;15.27;100.00
60489;BME280;46331;49.252;8.904;2023-08-06T00:21:48;98908.91;;;15.27;100.00
60489;BME280;46331;49.252;8.904;2023-08-06T00:22:29;98901.09;;;15.30;100.00
60489;BME280;46331;49.252;8.904;2023-08-06T00:23:10;98906.38;;;15.35;100.00
60489;BME280;46331;49.252;8.904;2023-08-06T00:23:50;98910.63;;;15.36;100.00
60489;BME280;46331;49.252;8.904;2023-08-06T00:24:33;98909.34;;;15.34;100.00
60489;BME280;46331;49.252;8.904;2023-08-06T00:25:14;98910.72;;;15.31;100.00
60489;BME280;46331;49.252;8.904;2023-08-06T00:25:54;98912.81;;;15.34;100.00
60489;BME280;46331;49.252;8.904;2023-08-06T00:26:35;98904.50;;;15.36;100.00
60489;BME280;46331;49.252;8.904;2023-08-06T00:27:15;98901.56;;;15.37;100.00
60489;BME280;46331;49.252;8.904;2023-08-06T00:27:56;98912.72;;;15.40;100.00
60489;BME280;46331;49.252;8.904;2023-08-06T00:28:36;98900.97;;;15.41;100.00
60489;BME280;46331;49.252;8.904;2023-08-06T00:29:17;98899.88;;;15.42;100.00
60489;BME280;46331;49.252;8.904;2023-08-06T00:29:58;98905.16;;;15.47;100.00
60489;BME280;46331;49.252;8.904;2023-08-06T00:30:38;98897.16;;;15.47;100.00
60489;BME280;46331;49.252;8.904;2023-08-06T00:31:19;98906.16;;;15.51;100.00
60489;BME280;46331;49.252;8.904;2023-08-06T00:31:59;98899.94;;;15.55;100.00
60489;BME280;46331;49.252;8.904;2023-08-06T00:32:40;98889.47;;;15.59;100.00
60489;BME280;46331;49.252;8.904;2023-08-06T00:33:21;98892.06;;;15.64;100.00
60489;BME280;46331;49.252;8.904;2023-08-06T00:34:02;98888.03;;;15.67;100.00
60489;BME280;46331;49.252;8.904;2023-08-06T00:34:42;98891.19;;;15.69;100.00
60489;BME280;46331;49.252;8.904;2023-08-06T00:35:23;98880.31;;;15.65;100.00
60489;BME280;46331;49.252;8.904;2023-08-06T00:36:03;98882.59;;;15.72;100.00
60489;BME280;46331;49.252;8.904;2023-08-06T00:36:44;98883.09;;;15.74;100.00
60489;BME280;46331;49.252;8.904;2023-08-06T00:37:24;98883.59;;;15.76;100.00
60489;BME280;46331;49.252;8.904;2023-08-06T00:38:05;98887.31;;;15.80;100.00
60489;BME280;46331;49.252;8.904;2023-08-06T00:38:45;98877.41;;;15.81;100.00
60489;BME280;46331;49.252;8.904;2023-08-06T00:39:26;98877.13;;;15.82;100.00
60489;BME280;46331;49.252;8.904;2023-08-06T00:40:07;98877.41;;;15.81;100.00
60489;BME280;46331;49.252;8.904;2023-08-06T00:40:48;98869.28;;;15.86;100.00
60489;BME280;46331;49.252;8.904;2023-08-06T00:41:29;98872.50;;;15.88;100.00
60489;BME280;46331;49.252;8.904;2023-08-06T00:42:10;98879.63;;;15.93;100.00
60489;BME280;46331;49.252;8.904;2023-08-06T00:42:50;98870.78;;;15.92;100.00
60489;BME280;46331;49.252;8.904;2023-08-06T00:43:31;98877.66;;;15.98;100.00
60489;BME280;46331;49.252;8.904;2023-08-06T00:44:11;98877.66;;;15.98;100.00
60489;BME280;46331;49.252;8.904;2023-08-06T00:44:54;98879.84;;;15.96;100.00
60489;BME280;46331;49.252;8.904;2023-08-06T00:45:36;98878.66;;;16.02;100.00
60489;BME280;46331;49.252;8.904;2023-08-06T00:46:16;98882.22;;;15.98;100.00
60489;BME280;46331;49.252;8.904;2023-08-06T00:46:57;98879.84;;;15.96;100.00
60489;BME280;46331;49.252;8.904;2023-08-06T00:47:37;98873.13;;;15.99;100.00
60489;BME280;46331;49.252;8.904;2023-08-06T00:48:20;98887.75;;;16.01;100.00
60489;BME280;46331;49.252;8.904;2023-08-06T00:49:00;98878.94;;;16.01;100.00
60489;BME280;46331;49.252;8.904;2023-08-06T00:49:41;98881.03;;;16.04;100.00
60489;BME280;46331;49.252;8.904;2023-08-06T00:50:22;98877.59;;;16.03;100.00
60489;BME280;46331;49.252;8.904;2023-08-06T00:51:03;98880.25;;;16.03;100.00
60489;BME280;46331;49.252;8.904;2023-08-06T00:51:44;98878.66;;;16.02;100.00
60489;BME280;46331;49.252;8.904;2023-08-06T00:52:24;98878.06;;;16.05;100.00
60489;BME280;46331;49.252;8.904;2023-08-06T00:53:05;98873.31;;;16.02;100.00
60489;BME280;46331;49.252;8.904;2023-08-06T00:53:46;98881.81;;;16.04;100.00
60489;BME280;46331;49.252;8.904;2023-08-06T00:54:27;98880.25;;;16.03;100.00
60489;BME280;46331;49.252;8.904;2023-08-06T00:55:08;98864.78;;;16.00;100.00
60489;BME280;46331;49.252;8.904;2023-08-06T00:55:49;98871.94;;;16.05;100.00
60489;BME280;46331;49.252;8.904;2023-08-06T00:56:30;98861.25;;;16.05;100.00
60489;BME280;46331;49.252;8.904;2023-08-06T00:57:11;98868.97;;;16.06;100.00
60489;BME280;46331;49.252;8.904;2023-08-06T00:57:51;98865.19;;;16.07;100.00
60489;BME280;46331;49.252;8.904;2023-08-06T00:58:33;98865.69;;;16.09;100.00
60489;BME280;46331;49.252;8.904;2023-08-06T00:59:15;98863.81;;;16.10;100.00
60489;BME280;46331;49.252;8.904;2023-08-06T00:59:55;98867.56;;;16.09;100.00
60489;BME280;46331;49.252;8.904;2023-08-06T01:00:36;98863.22;;;16.13;100.00
60489;BME280;46331;49.252;8.904;2023-08-06T01:01:17;98859.75;;;16.13;100.00
60489;BME280;46331;49.252;8.904;2023-08-06T01:01:57;98853.31;;;16.14;100.00
60489;BME280;46331;49.252;8.904;2023-08-06T01:02:38;98859.47;;;16.14;100.00
60489;BME280;46331;49.252;8.904;2023-08-06T01:03:19;98855.97;;;16.14;100.00
60489;BME280;46331;49.252;8.904;2023-08-06T01:03:59;98856.50;;;16.16;100.00
60489;BME280;46331;49.252;8.904;2023-08-06T01:04:41;98855.69;;;16.15;100.00
60489;BME280;46331;49.252;8.904;2023-08-06T01:05:22;98856.50;;;16.16;100.00
60489;BME280;46331;49.252;8.904;2023-08-06T01:06:03;98849.56;;;16.15;100.00
60489;BME280;46331;49.252;8.904;2023-08-06T01:06:49;98856.50;;;16.16;100.00
60489;BME280;46331;49.252;8.904;2023-08-06T01:09:50;98851.22;;;16.11;100.00
60489;BME280;46331;49.252;8.904;2023-08-06T01:14:02;98843.63;;;16.18;100.00
60489;BME280;46331;49.252;8.904;2023-08-06T01:14:59;98856.22;;;16.17;100.00
60489;BME280;46331;49.252;8.904;2023-08-06T01:15:54;98847.47;;;16.12;100.00
60489;BME280;46331;49.252;8.904;2023-08-06T01:16:37;98847.47;;;16.12;100.00
60489;BME280;46331;49.252;8.904;2023-08-06T01:17:18;98842.13;;;16.12;100.00
60489;BME280;46331;49.252;8.904;2023-08-06T01:17:59;98842.59;;;16.14;100.00
60489;BME280;46331;49.252;8.904;2023-08-06T01:18:40;98839.25;;;16.08;100.00
60489;BME280;46331;49.252;8.904;2023-08-06T01:19:22;98841.03;;;16.13;100.00
60489;BME280;46331;49.252;8.904;2023-08-06T01:20:02;98838.16;;;16.09;100.00
60489;BME280;46331;49.252;8.904;2023-08-06T01:20:44;98837.84;;;16.11;99.88
60489;BME280;46331;49.252;8.904;2023-08-06T01:21:24;98836.00;;;16.11;100.00
60489;BME280;46331;49.252;8.904;2023-08-06T01:22:05;98832.78;;;16.09;100.00
60489;BME280;46331;49.252;8.904;2023-08-06T01:22:47;98837.56;;;16.12;100.00
60489;BME280;46331;49.252;8.904;2023-08-06T01:23:27;98836.97;;;16.15;100.00
60489;BME280;46331;49.252;8.904;2023-08-06T01:24:08;98834.09;;;16.12;99.46
60489;BME280;46331;49.252;8.904;2023-08-06T01:24:50;98833.00;;;16.13;98.91
60489;BME280;46331;49.252;8.904;2023-08-06T01:25:43;98837.47;;;16.17;99.26
60489;BME280;46331;49.252;8.904;2023-08-06T01:26:30;98836.28;;;16.09;100.00
60489;BME280;46331;49.252;8.904;2023-08-06T01:27:38;98831.81;;;16.05;99.73
60489;BME280;46331;49.252;8.904;2023-08-06T01:28:32;98827.66;;;16.13;99.98
60489;BME280;46331;49.252;8.904;2023-08-06T01:29:25;98827.16;;;16.11;99.49
60489;BME280;46331;49.252;8.904;2023-08-06T01:30:34;98822.78;;;16.01;99.81
60489;BME280;46331;49.252;8.904;2023-08-06T01:31:30;98824.69;;;16.00;100.00
60489;BME280;46331;49.252;8.904;2023-08-06T01:32:12;98824.16;;;15.98;100.00
60489;BME280;46331;49.252;8.904;2023-08-06T01:32:58;98830.81;;;16.01;100.00
60489;BME280;46331;49.252;8.904;2023-08-06T01:33:44;98827.06;;;16.02;100.00
60489;BME280;46331;49.252;8.904;2023-08-06T01:34:27;98828.34;;;16.04;100.00
60489;BME280;46331;49.252;8.904;2023-08-06T01:35:10;98814.06;;;16.09;100.00
60489;BME280;46331;49.252;8.904;2023-08-06T01:35:53;98820.81;;;16.06;100.00
60489;BME280;46331;49.252;8.904;2023-08-06T01:36:35;98817.94;;;16.03;100.00
60489;BME280;46331;49.252;8.904;2023-08-06T01:37:16;98817.63;;;16.04;100.00
60489;BME280;46331;49.252;8.904;2023-08-06T01:37:57;98821.78;;;15.97;100.00
60489;BME280;46331;49.252;8.904;2023-08-06T01:38:37;98811.97;;;15.92;100.00
60489;BME280;46331;49.252;8.904;2023-08-06T01:39:18;98822.19;;;15.90;100.00
60489;BME280;46331;49.252;8.904;2023-08-06T01:40:01;98823.25;;;15.89;100.00
60489;BME280;46331;49.252;8.904;2023-08-06T01:40:41;98816.53;;;15.91;100.00
60489;BME280;46331;49.252;8.904;2023-08-06T01:41:22;98813.25;;;15.81;100.00
60489;BME280;46331;49.252;8.904;2023-08-06T01:42:03;98815.03;;;15.85;100.00
60489;BME280;46331;49.252;8.904;2023-08-06T01:42:44;98813.75;;;15.83;100.00
60489;BME280;46331;49.252;8.904;2023-08-06T01:43:24;98819.09;;;15.83;100.00
60489;BME280;46331;49.252;8.904;2023-08-06T01:44:05;98814.31;;;15.80;100.00
60489;BME280;46331;49.252;8.904;2023-08-06T01:44:46;98813.84;;;15.78;100.00
60489;BME280;46331;49.252;8.904;2023-08-06T01:45:26;98812.00;;;15.73;100.00
60489;BME280;46331;49.252;8.904;2023-08-06T01:46:07;98808.75;;;15.76;100.00
60489;BME280;46331;49.252;8.904;2023-08-06T01:46:47;98815.56;;;15.68;100.00
60489;BME280;46331;49.252;8.904;2023-08-06T01:47:28;98816.22;;;15.79;100.00
60489;BME280;46331;49.252;8.904;2023-08-06T01:48:08;98804.19;;;15.77;100.00
60489;BME280;46331;49.252;8.904;2023-08-06T01:48:49;98812.47;;;15.80;100.00
60489;BME280;46331;49.252;8.904;2023-08-06T01:49:29;98806.88;;;15.77;100.00
60489;BME280;46331;49.252;8.904;2023-08-06T01:50:10;98807.31;;;15.84;100.00
60489;BME280;46331;49.252;8.904;2023-08-06T01:50:51;98810.06;;;15.79;100.00
60489;BME280;46331;49.252;8.904;2023-08-06T01:51:32;98807.59;;;15.82;100.00
60489;BME280;46331;49.252;8.904;2023-08-06T01:52:13;98806.59;;;15.78;100.00
60489;BME280;46331;49.252;8.904;2023-08-06T01:52:53;98803.34;;;15.81;100.00
60489;BME280;46331;49.252;8.904;2023-08-06T01:53:34;98801.25;;;15.78;100.00
60489;BME280;46331;49.252;8.904;2023-08-06T01:54:15;98802.56;;;15.81;100.00
60489;BME280;46331;49.252;8.904;2023-08-06T01:54:55;98804.94;;;15.82;100.00
60489;BME280;46331;49.252;8.904;2023-08-06T01:55:36;98808.50;;;15.78;100.00
60489;BME280;46331;49.252;8.904;2023-08-06T01:56:17;98799.38;;;15.79;100.00
60489;BME280;46331;49.252;8.904;2023-08-06T01:56:57;98806.00;;;15.81;100.00
60489;BME280;46331;49.252;8.904;2023-08-06T01:57:38;98797.50;;;15.79;100.00
60489;BME280;46331;49.252;8.904;2023-08-06T01:58:19;98796.44;;;15.80;100.00
60489;BME280;46331;49.252;8.904;2023-08-06T01:58:59;98800.50;;;15.72;100.00
60489;BME280;46331;49.252;8.904;2023-08-06T01:59:40;98794.00;;;15.79;100.00
60489;BME280;46331;49.252;8.904;2023-08-06T02:00:21;98802.59;;;15.76;100.00
60489;BME280;46331;49.252;8.904;2023-08-06T02:01:02;98793.00;;;15.74;100.00
60489;BME280;46331;49.252;8.904;2023-08-06T02:01:42;98797.78;;;15.78;100.00
60489;BME280;46331;49.252;8.904;2023-08-06T02:02:23;98797.25;;;15.76;100.00
60489;BME280;46331;49.252;8.904;2023-08-06T02:03:03;98796.69;;;15.79;100.00
60489;BME280;46331;49.252;8.904;2023-08-06T02:03:44;98794.81;;;15.79;100.00
60489;BME280;46331;49.252;8.904;2023-08-06T02:04:24;98795.31;;;15.81;100.00
60489;BME280;46331;49.252;8.904;2023-08-06T02:05:05;98802.03;;;15.79;100.00
60489;BME280;46331;49.252;8.904;2023-08-06T02:05:46;98792.94;;;15.80;100.00
60489;BME280;46331;49.252;8.904;2023-08-06T02:06:26;98790.56;;;15.78;100.00
60489;BME280;46331;49.252;8.904;2023-08-06T02:07:07;98788.97;;;15.77;100.00
60489;BME280;46331;49.252;8.904;2023-08-06T02:07:47;98784.63;;;15.81;100.00
60489;BME280;46331;49.252;8.904;2023-08-06T02:08:28;98786.72;;;15.84;100.00
60489;BME280;46331;49.252;8.904;2023-08-06T02:09:08;98784.56;;;15.86;100.00
60489;BME280;46331;49.252;8.904;2023-08-06T02:09:50;98781.59;;;15.88;100.00
60489;BME280;46331;49.252;8.904;2023-08-06T02:10:30;98778.97;;;15.83;100.00
60489;BME280;46331;49.252;8.904;2023-08-06T02:11:11;98781.88;;;15.86;100.00
60489;BME280;46331;49.252;8.904;2023-08-06T02:11:51;98777.19;;;15.78;100.00
60489;BME280;46331;49.252;8.904;2023-08-06T02:12:32;98782.25;;;15.80;100.00
60489;BME280;46331;49.252;8.904;2023-08-06T02:13:12;98781.47;;;15.79;100.00
60489;BME280;46331;49.252;8.904;2023-08-06T02:13:53;98780.94;;;15.77;100.00
60489;BME280;46331;49.252;8.904;2023-08-06T02:14:33;98781.75;;;15.78;100.00
60489;BME280;46331;49.252;8.904;2023-08-06T02:15:14;98771.63;;;15.74;100.00
60489;BME280;46331;49.252;8.904;2023-08-06T02:15:55;98779.94;;;15.73;100.00
60489;BME280;46331;49.252;8.904;2023-08-06T02:16:35;98772.69;;;15.73;100.00
60489;BME280;46331;49.252;8.904;2023-08-06T02:17:16;98774.38;;;15.69;100.00
60489;BME280;46331;49.252;8.904;2023-08-06T02:17:57;98780.13;;;15.77;100.00
60489;BME280;46331;49.252;8.904;2023-08-06T02:18:37;98767.03;;;15.80;100.00
60489;BME280;46331;49.252;8.904;2023-08-06T02:19:18;98776.16;;;15.74;100.00
60489;BME280;46331;49.252;8.904;2023-08-06T02:19:58;98774.00;;;15.76;100.00
60489;BME280;46331;49.252;8.904;2023-08-06T02:20:39;98776.44;;;15.72;100.00
60489;BME280;46331;49.252;8.904;2023-08-06T02:21:19;98769.25;;;15.73;100.00
60489;BME280;46331;49.252;8.904;2023-08-06T02:22:00;98776.69;;;15.76;100.00
60489;BME280;46331;49.252;8.904;2023-08-06T02:22:40;98776.44;;;15.72;100.00
60489;BME280;46331;49.252;8.904;2023-08-06T02:23:23;98776.69;;;15.76;100.00
60489;BME280;46331;49.252;8.904;2023-08-06T02:24:04;98773.16;;;15.81;100.00
60489;BME280;46331;49.252;8.904;2023-08-06T02:24:44;98769.69;;;15.80;100.00
60489;BME280;46331;49.252;8.904;2023-08-06T02:25:25;98763.03;;;15.78;100.00
60489;BME280;46331;49.252;8.904;2023-08-06T02:26:05;98766.28;;;15.74;100.00
60489;BME280;46331;49.252;8.904;2023-08-06T02:26:46;98764.69;;;15.73;100.00
60489;BME280;46331;49.252;8.904;2023-08-06T02:27:28;98770.03;;;15.73;100.00
60489;BME280;46331;49.252;8.904;2023-08-06T02:28:09;98764.50;;;15.70;100.00
60489;BME280;46331;49.252;8.904;2023-08-06T02:28:50;98767.94;;;15.70;100.00
60489;BME280;46331;49.252;8.904;2023-08-06T02:29:30;98763.66;;;15.69;100.00
60489;BME280;46331;49.252;8.904;2023-08-06T02:30:11;98770.13;;;15.68;100.00
60489;BME280;46331;49.252;8.904;2023-08-06T02:30:53;98765.16;;;15.62;100.00
60489;BME280;46331;49.252;8.904;2023-08-06T02:31:33;98767.03;;;15.61;100.00
60489;BME280;46331;49.252;8.904;2023-08-06T02:32:14;98767.13;;;15.56;100.00
60489;BME280;46331;49.252;8.904;2023-08-06T02:32:54;98768.69;;;15.57;100.00
60489;BME280;46331;49.252;8.904;2023-08-06T02:33:35;98761.25;;;15.54;100.00
60489;BME280;46331;49.252;8.904;2023-08-06T02:34:15;98764.47;;;15.56;100.00
60489;BME280;46331;49.252;8.904;2023-08-06T02:34:56;98763.06;;;15.59;100.00
60489;BME280;46331;49.252;8.904;2023-08-06T02:35:36;98763.56;;;15.61;100.00
60489;BME280;46331;49.252;8.904;2023-08-06T02:36:17;98764.84;;;15.63;100.00
60489;BME280;46331;49.252;8.904;2023-08-06T02:36:57;98759.81;;;15.62;100.00
60489;BME280;46331;49.252;8.904;2023-08-06T02:37:38;98768.69;;;15.57;100.00
60489;BME280;46331;49.252;8.904;2023-08-06T02:38:18;98762.88;;;15.55;100.00
60489;BME280;46331;49.252;8.904;2023-08-06T02:38:59;98771.38;;;15.57;100.00
60489;BME280;46331;49.252;8.904;2023-08-06T02:39:39;98767.91;;;15.56;100.00
60489;BME280;46331;49.252;8.904;2023-08-06T02:40:21;98772.47;;;15.56;100.00
60489;BME280;46331;49.252;8.904;2023-08-06T02:41:02;98771.97;;;15.54;100.00
60489;BME280;46331;49.252;8.904;2023-08-06T02:41:44;98767.69;;;15.39;100.00
60489;BME280;46331;49.252;8.904;2023-08-06T02:42:24;98778.84;;;15.41;100.00
60489;BME280;46331;49.252;8.904;2023-08-06T02:43:06;98774.09;;;15.38;100.00
60489;BME280;46331;49.252;8.904;2023-08-06T02:43:47;98776.56;;;15.34;100.00
60489;BME280;46331;49.252;8.904;2023-08-06T02:44:27;98777.84;;;15.37;100.00
60489;BME280;46331;49.252;8.904;2023-08-06T02:45:08;98773.22;;;15.43;100.00
60489;BME280;46331;49.252;8.904;2023-08-06T02:45:49;98768.16;;;15.41;100.00
60489;BME280;46331;49.252;8.904;2023-08-06T02:46:29;98766.81;;;15.44;100.00
60489;BME280;46331;49.252;8.904;2023-08-06T02:47:10;98769.19;;;15.45;100.00
60489;BME280;46331;49.252;8.904;2023-08-06T02:47:50;98778.84;;;15.41;100.00
60489;BME280;46331;49.252;8.904;2023-08-06T02:48:31;98768.38;;;15.45;100.00
60489;BME280;46331;49.252;8.904;2023-08-06T02:49:11;98767.59;;;15.44;100.00
60489;BME280;46331;49.252;8.904;2023-08-06T02:49:52;98766.00;;;15.43;100.00
60489;BME280;46331;49.252;8.904;2023-08-06T02:50:40;98766.81;;;15.44;100.00
60489;BME280;46331;49.252;8.904;2023-08-06T02:51:21;98764.72;;;15.41;100.00
60489;BME280;46331;49.252;8.904;2023-08-06T02:52:02;98767.88;;;15.43;100.00
60489;BME280;46331;49.252;8.904;2023-08-06T02:52:42;98766.28;;;15.42;100.00
60489;BME280;46331;49.252;8.904;2023-08-06T02:53:23;98762.03;;;15.41;100.00
60489;BME280;46331;49.252;8.904;2023-08-06T02:54:04;98763.41;;;15.38;100.00
60489;BME280;46331;49.252;8.904;2023-08-06T02:54:46;98762.63;;;15.37;100.00
60489;BME280;46331;49.252;8.904;2023-08-06T02:55:28;98769.13;;;15.31;100.00
60489;BME280;46331;49.252;8.904;2023-08-06T02:56:09;98768.84;;;15.33;100.00
60489;BME280;46331;49.252;8.904;2023-08-06T02:57:12;98756.06;;;15.30;100.00
60489;BME280;46331;49.252;8.904;2023-08-06T02:57:53;98762.78;;;15.27;100.00
60489;BME280;46331;49.252;8.904;2023-08-06T02:58:34;98757.72;;;15.26;100.00
60489;BME280;46331;49.252;8.904;2023-08-06T02:59:25;98761.19;;;15.26;100.00
60489;BME280;46331;49.252;8.904;2023-08-06T03:00:20;98755.06;;;15.26;100.00
60489;BME280;46331;49.252;8.904;2023-08-06T03:01:02;98765.16;;;15.29;100.00
60489;BME280;46331;49.252;8.904;2023-08-06T03:01:44;98760.41;;;15.26;100.00
60489;BME280;46331;49.252;8.904;2023-08-06T03:02:32;98762.88;;;15.22;100.00
60489;BME280;46331;49.252;8.904;2023-08-06T03:03:18;98763.94;;;15.21;100.00
60489;BME280;46331;49.252;8.904;2023-08-06T03:04:06;98762.44;;;15.15;100.00
60489;BME280;46331;49.252;8.904;2023-08-06T03:04:51;98760.50;;;15.20;100.00
60489;BME280;46331;49.252;8.904;2023-08-06T03:05:35;98768.41;;;15.26;100.00
60489;BME280;46331;49.252;8.904;2023-08-06T03:06:16;98767.53;;;15.30;100.00
60489;BME280;46331;49.252;8.904;2023-08-06T03:07:01;98764.78;;;15.35;100.00
60489;BME280;46331;49.252;8.904;2023-08-06T03:07:50;98759.44;;;15.35;100.00
60489;BME280;46331;49.252;8.904;2023-08-06T03:08:36;98762.91;;;15.36;100.00
60489;BME280;46331;49.252;8.904;2023-08-06T03:09:19;98763.41;;;15.38;100.00
60489;BME280;46331;49.252;8.904;2023-08-06T03:10:01;98760.53;;;15.34;100.00
60489;BME280;46331;49.252;8.904;2023-08-06T03:10:43;98769.53;;;15.38;100.00
60489;BME280;46331;49.252;8.904;2023-08-06T03:11:23;98766.38;;;15.36;100.00
60489;BME280;46331;49.252;8.904;2023-08-06T03:12:09;98759.53;;;15.30;100.00
60489;BME280;46331;49.252;8.904;2023-08-06T03:12:49;98762.09;;;15.35;100.00
60489;BME280;46331;49.252;8.904;2023-08-06T03:13:30;98764.19;;;15.38;100.00
60489;BME280;46331;49.252;8.904;2023-08-06T03:14:11;98762.63;;;15.37;100.00
60489;BME280;46331;49.252;8.904;2023-08-06T03:14:52;98762.41;;;15.34;100.00
60489;BME280;46331;49.252;8.904;2023-08-06T03:15:34;98771.34;;;15.43;100.00
60489;BME280;46331;49.252;8.904;2023-08-06T03:16:16;98762.63;;;15.37;100.00
60489;BME280;46331;49.252;8.904;2023-08-06T03:16:57;98762.63;;;15.37;100.00
60489;BME280;46331;49.252;8.904;2023-08-06T03:17:38;98762.03;;;15.41;100.00
60489;BME280;46331;49.252;8.904;2023-08-06T03:18:20;98762.03;;;15.41;100.00
60489;BME280;46331;49.252;8.904;2023-08-06T03:19:02;98754.22;;;15.44;99.55
60489;BME280;46331;49.252;8.904;2023-08-06T03:19:42;98756.41;;;15.42;98.57
60489;BME280;46331;49.252;8.904;2023-08-06T03:20:25;98755.53;;;15.47;99.64
60489;BME280;46331;49.252;8.904;2023-08-06T03:21:05;98759.69;;;15.53;98.34
60489;BME280;46331;49.252;8.904;2023-08-06T03:21:46;98763.25;;;15.48;97.67
60489;BME280;46331;49.252;8.904;2023-08-06T03:22:28;98764.75;;;15.54;98.84
60489;BME280;46331;49.252;8.904;2023-08-06T03:23:09;98755.91;;;15.54;97.93
60489;BME280;46331;49.252;8.904;2023-08-06T03:23:50;98762.38;;;15.53;97.24
60489;BME280;46331;49.252;8.904;2023-08-06T03:24:33;98760.97;;;15.55;97.98
60489;BME280;46331;49.252;8.904;2023-08-06T03:25:14;98763.06;;;15.59;97.13
60489;BME280;46331;49.252;8.904;2023-08-06T03:26:04;98765.44;;;15.60;96.70
60489;BME280;46331;49.252;8.904;2023-08-06T03:26:46;98762.75;;;15.60;96.29
60489;BME280;46331;49.252;8.904;2023-08-06T03:27:26;98761.25;;;15.54;96.43
60489;BME280;46331;49.252;8.904;2023-08-06T03:28:07;98768.50;;;15.53;97.02
60489;BME280;46331;49.252;8.904;2023-08-06T03:28:48;98759.50;;;15.63;97.07
60489;BME280;46331;49.252;8.904;2023-08-06T03:29:30;98762.69;;;15.65;96.78
60489;BME280;46331;49.252;8.904;2023-08-06T03:30:13;98755.75;;;15.64;95.39
60489;BME280;46331;49.252;8.904;2023-08-06T03:31:43;98768.03;;;15.65;97.05
60489;BME280;46331;49.252;8.904;2023-08-06T03:32:25;98760.03;;;15.65;95.63
60489;BME280;46331;49.252;8.904;2023-08-06T03:33:07;98763.47;;;15.66;95.38
60489;BME280;46331;49.252;8.904;2023-08-06T03:33:47;98764.25;;;15.66;95.42
60489;BME280;46331;49.252;8.904;2023-08-06T03:34:30;98762.59;;;15.70;95.75
60489;BME280;46331;49.252;8.904;2023-08-06T03:35:11;98770.13;;;15.68;96.22
60489;BME280;46331;49.252;8.904;2023-08-06T03:35:51;98768.53;;;15.67;96.37
60489;BME280;46331;49.252;8.904;2023-08-06T03:36:33;98765.44;;;15.60;95.62
60489;BME280;46331;49.252;8.904;2023-08-06T03:37:14;98761.09;;;15.64;96.12
60489;BME280;46331;49.252;8.904;2023-08-06T03:37:55;98768.41;;;15.59;95.79
60489;BME280;46331;49.252;8.904;2023-08-06T03:38:35;98767.03;;;15.61;96.17
60489;BME280;46331;49.252;8.904;2023-08-06T03:39:19;98769.00;;;15.55;97.03
60489;BME280;46331;49.252;8.904;2023-08-06T03:40:00;98764.03;;;15.49;96.47
60489;BME280;46331;49.252;8.904;2023-08-06T03:40:40;98761.06;;;15.50;96.23
60489;BME280;46331;49.252;8.904;2023-08-06T03:41:21;98768.50;;;15.53;96.15
60489;BME280;46331;49.252;8.904;2023-08-06T03:42:01;98763.44;;;15.52;96.89
60489;BME280;46331;49.252;8.904;2023-08-06T03:42:42;98761.06;;;15.50;97.51
60489;BME280;46331;49.252;8.904;2023-08-06T03:43:22;98765.69;;;15.45;96.46
60489;BME280;46331;49.252;8.904;2023-08-06T03:44:03;98771.03;;;15.45;96.19
60489;BME280;46331;49.252;8.904;2023-08-06T03:44:44;98762.53;;;15.43;96.72
60489;BME280;46331;49.252;8.904;2023-08-06T03:45:25;98763.13;;;15.40;96.81